Time;durP1;ratioP1;P1;durP2;ratioP2;P2;SDS_P1;SDS_P2;PMS_P1;PMS_P2;Temp;Humidity;BMP_temperature;BMP_pressure;BME280_temperature;BME280_humidity;BME280_pressure;Samples;Min_cycle;Max_cycle;Signal;HPM_P1;HPM_P2
2023/10/19 00:00:28;;;;;;;4.47;4.07;;;13.00;99.90;;;;;;5001542;28;20185;-68
2023/10/19 00:02:54;;;;;;;5.05;4.13;;;13.10;99.90;;;;;;5000168;28;20206;-68
2023/10/19 00:05:20;;;;;;;6.85;3.78;;;13.10;99.90;;;;;;5002134;28;20177;-68
2023/10/19 00:07:49;;;;;;;5.40;4.35;;;13.10;99.90;;;;;;5002163;28;20174;-68
2023/10/19 00:10:17;;;;;;;5.50;4.03;;;13.10;99.90;;;;;;4993596;28;20205;-67
2023/10/19 00:12:43;;;;;;;5.57;4.30;;;13.20;99.90;;;;;;4999398;28;20199;-67
2023/10/19 00:15:13;;;;;;;4.88;4.20;;;13.20;99.90;;;;;;5001776;28;20187;-68
2023/10/19 00:17:44;;;;;;;4.53;3.80;;;13.20;99.90;;;;;;5012453;28;20277;-67
2023/10/19 00:20:37;;;;;;;5.70;4.40;;;13.20;99.90;;;;;;5017336;28;20181;-67
2023/10/19 00:23:05;;;;;;;4.60;3.75;;;13.30;99.90;;;;;;4994133;28;20265;-67
2023/10/19 00:25:34;;;;;;;5.30;4.38;;;13.30;99.90;;;;;;4998440;28;20171;-67
2023/10/19 00:28:05;;;;;;;5.57;4.75;;;13.30;99.90;;;;;;4997549;28;20202;-67
2023/10/19 00:30:36;;;;;;;5.20;4.70;;;13.30;99.90;;;;;;4982312;28;20199;-68
2023/10/19 00:33:09;;;;;;;5.65;4.82;;;13.40;99.90;;;;;;5001170;28;20186;-67
2023/10/19 00:35:35;;;;;;;6.13;4.68;;;13.40;99.90;;;;;;4990529;28;20179;-67
2023/10/19 00:43:34;;;;;;;6.32;5.57;;;13.40;99.90;;;;;;5018201;28;20202;-69
2023/10/19 00:46:15;;;;;;;6.57;4.95;;;13.40;99.90;;;;;;5000248;28;20233;-68
2023/10/19 00:48:53;;;;;;;5.93;4.70;;;13.40;99.90;;;;;;4988268;28;20217;-68
2023/10/19 00:51:42;;;;;;;4.90;4.40;;;13.40;99.90;;;;;;4995736;28;20178;-68
2023/10/19 00:54:16;;;;;;;5.75;4.63;;;13.40;99.90;;;;;;5004597;28;20182;-68
2023/10/19 00:56:49;;;;;;;6.30;4.78;;;13.40;99.90;;;;;;5005524;28;20206;-69
2023/10/19 01:01:54;;;;;;;4.82;3.97;;;13.40;99.90;;;;;;5005806;28;20206;-69
2023/10/19 01:04:22;;;;;;;4.60;4.13;;;13.40;99.90;;;;;;5009178;28;20175;-68
2023/10/19 01:07:05;;;;;;;4.25;3.85;;;13.30;99.90;;;;;;5000904;28;20206;-69
2023/10/19 01:09:38;;;;;;;5.22;4.47;;;13.30;99.90;;;;;;4995098;28;20261;-69
2023/10/19 01:15:07;;;;;;;5.18;4.22;;;13.30;99.90;;;;;;5017799;28;20213;-68
2023/10/19 01:17:39;;;;;;;4.78;4.28;;;13.30;99.90;;;;;;5017945;28;20237;-69
2023/10/19 01:20:55;;;;;;;4.78;4.30;;;13.30;99.90;;;;;;5001030;28;20202;-69
2023/10/19 01:25:34;;;;;;;5.50;4.55;;;13.30;99.90;;;;;;5010071;28;20185;-68
2023/10/19 01:28:07;;;;;;;5.72;4.82;;;13.30;99.90;;;;;;5000585;28;20194;-69
2023/10/19 01:30:33;;;;;;;6.20;4.88;;;13.30;99.90;;;;;;5000625;28;20175;-68
2023/10/19 01:33:02;;;;;;;5.28;4.75;;;13.30;99.90;;;;;;5000606;28;20193;-69
2023/10/19 01:36:10;;;;;;;4.80;4.25;;;13.30;99.90;;;;;;5017729;28;20178;-69
2023/10/19 01:38:16;;;;;;;5.88;4.85;;;13.30;99.90;;;;;;5017600;28;20286;-69
2023/10/19 01:40:46;;;;;;;5.18;4.47;;;13.30;99.90;;;;;;5000089;28;20171;-69
2023/10/19 01:43:21;;;;;;;5.95;5.35;;;13.30;99.90;;;;;;4999405;28;20293;-69
2023/10/19 01:45:48;;;;;;;5.43;4.80;;;13.40;99.90;;;;;;5000111;28;20222;-69
2023/10/19 01:48:15;;;;;;;5.38;4.40;;;13.40;99.90;;;;;;5000005;28;20213;-70
2023/10/19 01:50:41;;;;;;;6.05;5.25;;;13.40;99.90;;;;;;4999609;28;20182;-68
2023/10/19 01:53:15;;;;;;;5.60;4.88;;;13.40;99.90;;;;;;4993896;28;20194;-69
2023/10/19 01:55:44;;;;;;;5.18;4.68;;;13.50;99.90;;;;;;4980917;28;20168;-69
2023/10/19 01:58:10;;;;;;;8.57;5.00;;;13.50;99.90;;;;;;4997433;28;20213;-69
2023/10/19 02:00:37;;;;;;;6.00;5.13;;;13.50;99.90;;;;;;4996140;28;20180;-68
2023/10/19 02:03:09;;;;;;;5.75;5.07;;;13.60;99.90;;;;;;4990486;28;20278;-68
2023/10/19 02:05:43;;;;;;;6.65;5.13;;;13.60;99.90;;;;;;4999921;28;20170;-69
2023/10/19 02:08:08;;;;;;;5.82;5.03;;;13.60;99.90;;;;;;5001027;28;20174;-69
2023/10/19 02:10:41;;;;;;;6.38;4.80;;;13.60;99.90;;;;;;5019458;28;20198;-69
2023/10/19 02:13:11;;;;;;;5.15;4.60;;;13.60;99.90;;;;;;5018948;28;20180;-68
2023/10/19 02:15:36;;;;;;;5.60;4.50;;;13.60;99.90;;;;;;4979999;28;20186;-68
2023/10/19 02:18:03;;;;;;;5.47;4.97;;;13.60;99.90;;;;;;4997434;28;20270;-69
2023/10/19 02:20:29;;;;;;;5.07;4.50;;;13.60;99.90;;;;;;4979907;28;20175;-67
2023/10/19 02:22:57;;;;;;;5.38;4.88;;;13.60;99.90;;;;;;4999113;28;20214;-69
2023/10/19 02:25:25;;;;;;;4.93;4.40;;;13.60;99.90;;;;;;4993106;28;20183;-68
2023/10/19 02:27:52;;;;;;;5.60;5.00;;;13.60;99.90;;;;;;4998180;28;20185;-69
2023/10/19 02:30:20;;;;;;;5.65;4.38;;;13.60;99.90;;;;;;4998994;28;20185;-69
2023/10/19 02:32:47;;;;;;;5.18;4.63;;;13.70;99.90;;;;;;4998442;28;20193;-69
2023/10/19 02:35:14;;;;;;;5.13;4.57;;;13.60;99.90;;;;;;4999098;28;20221;-69
2023/10/19 02:37:40;;;;;;;4.50;4.10;;;13.60;99.90;;;;;;4997785;28;20197;-69
2023/10/19 02:40:24;;;;;;;4.65;3.80;;;13.70;99.90;;;;;;4999174;28;20182;-70
2023/10/19 02:42:55;;;;;;;4.88;4.25;;;13.70;99.90;;;;;;4985485;28;20207;-71
2023/10/19 02:45:30;;;;;;;6.35;4.72;;;13.70;99.90;;;;;;4985422;28;20190;-70
2023/10/19 02:47:57;;;;;;;5.00;4.50;;;13.70;99.90;;;;;;4988942;28;20202;-69
2023/10/19 02:50:30;;;;;;;4.90;4.10;;;13.70;99.90;;;;;;4999605;28;20186;-69
2023/10/19 02:52:58;;;;;;;5.38;4.82;;;13.80;99.90;;;;;;4996228;28;20178;-70
2023/10/19 02:55:26;;;;;;;5.55;5.03;;;13.90;99.90;;;;;;4999160;28;20253;-70
2023/10/19 02:57:52;;;;;;;5.63;4.78;;;13.80;99.90;;;;;;4980726;28;20179;-69
2023/10/19 03:00:22;;;;;;;5.15;4.40;;;13.90;99.90;;;;;;4988582;28;20203;-70
2023/10/19 03:02:48;;;;;;;5.30;4.30;;;13.90;99.90;;;;;;4986485;28;20206;-70
2023/10/19 03:05:17;;;;;;;6.15;4.03;;;13.90;99.90;;;;;;5006359;28;20266;-70
2023/10/19 03:07:46;;;;;;;5.68;3.92;;;13.90;99.90;;;;;;4998803;28;20203;-70
2023/10/19 03:10:25;;;;;;;4.72;4.10;;;14.00;99.90;;;;;;4993385;28;20206;-70
2023/10/19 03:12:53;;;;;;;4.32;3.83;;;14.00;99.90;;;;;;4998936;28;20348;-70
2023/10/19 03:15:20;;;;;;;4.97;3.88;;;14.00;99.90;;;;;;4999015;28;20182;-70
2023/10/19 03:17:48;;;;;;;4.82;4.07;;;14.00;99.90;;;;;;4998848;28;20178;-70
2023/10/19 03:20:16;;;;;;;4.90;4.15;;;14.00;99.90;;;;;;4994227;28;20207;-70
2023/10/19 03:22:43;;;;;;;4.65;3.88;;;14.00;99.90;;;;;;4998433;28;20214;-71
2023/10/19 03:28:05;;;;;;;4.30;3.67;;;13.80;99.90;;;;;;5016202;28;20216;-70
2023/10/19 03:30:31;;;;;;;4.68;3.63;;;13.90;99.90;;;;;;4998879;28;20174;-70
2023/10/19 03:32:59;;;;;;;4.32;3.90;;;13.90;99.90;;;;;;4998662;28;20205;-70
2023/10/19 03:35:27;;;;;;;4.40;3.70;;;13.80;99.90;;;;;;4998142;28;20174;-70
2023/10/19 03:37:58;;;;;;;4.30;3.78;;;13.90;99.90;;;;;;4997773;28;20207;-70
2023/10/19 03:40:32;;;;;;;5.40;4.10;;;13.80;99.90;;;;;;4998199;28;20183;-70
2023/10/19 03:43:05;;;;;;;5.55;4.68;;;13.80;99.90;;;;;;4997829;28;20285;-70
2023/10/19 03:45:33;;;;;;;5.13;4.00;;;13.80;99.90;;;;;;4998371;28;20214;-70
2023/10/19 03:48:06;;;;;;;3.65;3.30;;;13.70;99.90;;;;;;4998097;28;20175;-71
2023/10/19 03:50:33;;;;;;;4.22;3.45;;;13.80;99.90;;;;;;5002254;28;20204;-70
2023/10/19 03:53:04;;;;;;;3.95;3.55;;;13.80;99.90;;;;;;4997056;28;20189;-70
2023/10/19 03:55:30;;;;;;;3.92;3.30;;;13.80;99.90;;;;;;5001459;28;20197;-70
2023/10/19 03:57:55;;;;;;;3.83;3.17;;;13.80;99.90;;;;;;4993720;28;20182;-71
2023/10/19 04:00:28;;;;;;;4.53;4.00;;;13.80;99.90;;;;;;4992021;28;20183;-69
2023/10/19 04:02:58;;;;;;;5.88;4.32;;;13.80;99.90;;;;;;4991272;28;20211;-71
2023/10/19 04:05:28;;;;;;;4.20;3.50;;;13.80;99.90;;;;;;4990567;28;20193;-68
2023/10/19 04:08:05;;;;;;;3.75;3.20;;;13.80;99.90;;;;;;4998186;28;20265;-69
2023/10/19 04:10:38;;;;;;;4.07;3.53;;;13.90;99.90;;;;;;4978468;28;20217;-70
2023/10/19 04:13:09;;;;;;;3.28;2.97;;;13.90;99.90;;;;;;4989512;28;20190;-71
2023/10/19 04:15:35;;;;;;;3.78;3.30;;;14.00;99.90;;;;;;4997671;28;20182;-69
2023/10/19 04:18:02;;;;;;;2.97;2.72;;;14.00;99.90;;;;;;4998085;28;20197;-69
2023/10/19 04:20:42;;;;;;;4.20;3.35;;;14.00;99.90;;;;;;4998159;28;20179;-70
2023/10/19 04:23:10;;;;;;;4.00;2.70;;;14.10;99.90;;;;;;4998291;28;20217;-70
2023/10/19 04:25:39;;;;;;;3.58;2.83;;;14.10;99.90;;;;;;5001297;28;20167;-70
2023/10/19 04:28:06;;;;;;;3.35;2.95;;;14.20;99.90;;;;;;4990751;28;20174;-72
2023/10/19 04:30:33;;;;;;;3.67;3.05;;;14.20;99.90;;;;;;5001355;28;20202;-70
2023/10/19 04:33:01;;;;;;;3.90;3.35;;;14.30;99.90;;;;;;4982453;28;20179;-71
2023/10/19 04:35:30;;;;;;;3.63;3.20;;;14.30;99.90;;;;;;4981949;28;20176;-70
2023/10/19 04:37:56;;;;;;;3.13;2.83;;;14.30;99.90;;;;;;4998456;28;20280;-70
2023/10/19 04:40:25;;;;;;;4.18;3.13;;;14.40;99.90;;;;;;4999290;28;20183;-70
2023/10/19 04:42:59;;;;;;;3.20;2.88;;;14.40;99.90;;;;;;5001287;28;20269;-70
2023/10/19 04:45:25;;;;;;;4.07;3.08;;;14.50;99.90;;;;;;4989419;28;20466;-70
2023/10/19 04:47:54;;;;;;;4.10;3.00;;;14.50;99.90;;;;;;5000992;28;20170;-70
2023/10/19 04:50:20;;;;;;;3.55;3.17;;;14.50;99.90;;;;;;5001108;28;20242;-70
2023/10/19 04:52:48;;;;;;;3.75;2.97;;;14.50;99.90;;;;;;4994964;28;20207;-70
2023/10/19 04:55:13;;;;;;;4.22;2.90;;;14.50;99.90;;;;;;5001154;28;20206;-71
2023/10/19 04:57:39;;;;;;;3.60;3.08;;;14.50;99.90;;;;;;5000499;28;20194;-69
2023/10/19 05:00:05;;;;;;;4.15;3.35;;;14.60;99.90;;;;;;5001316;28;20266;-70
2023/10/19 05:02:36;;;;;;;4.38;3.20;;;14.60;99.90;;;;;;4981585;28;20199;-70
2023/10/19 05:05:03;;;;;;;3.30;2.90;;;14.70;99.90;;;;;;4997311;28;20183;-70
2023/10/19 05:07:29;;;;;;;4.50;3.47;;;14.70;99.90;;;;;;5000617;28;20198;-70
2023/10/19 05:09:55;;;;;;;3.90;3.05;;;14.70;99.90;;;;;;4999500;28;20185;-69
2023/10/19 05:12:21;;;;;;;3.70;3.30;;;14.70;99.90;;;;;;5000704;28;20263;-69
2023/10/19 05:14:50;;;;;;;3.72;3.33;;;14.70;99.90;;;;;;5000529;28;20225;-69
2023/10/19 05:17:16;;;;;;;5.10;3.15;;;14.70;99.90;;;;;;5000773;28;20197;-70
2023/10/19 05:19:41;;;;;;;3.78;3.35;;;14.70;99.90;;;;;;5000070;28;20266;-70
2023/10/19 05:22:08;;;;;;;4.75;3.40;;;14.70;99.90;;;;;;5000459;28;20179;-70
2023/10/19 05:24:35;;;;;;;3.95;3.55;;;14.80;99.90;;;;;;5000334;28;20256;-70
2023/10/19 05:27:01;;;;;;;3.47;3.17;;;14.80;99.90;;;;;;5000637;28;20194;-70
2023/10/19 05:29:27;;;;;;;4.82;3.67;;;14.80;99.90;;;;;;5000139;28;20218;-70
2023/10/19 05:31:57;;;;;;;4.10;3.25;;;14.80;99.90;;;;;;5008481;28;20230;-71
2023/10/19 05:34:26;;;;;;;4.82;3.45;;;14.90;99.90;;;;;;5004737;28;20178;-71
2023/10/19 05:36:54;;;;;;;3.75;2.92;;;14.90;99.90;;;;;;4998887;28;20190;-71
2023/10/19 05:39:20;;;;;;;4.32;3.40;;;14.90;99.90;;;;;;5000301;28;20273;-71
2023/10/19 05:41:46;;;;;;;4.25;3.33;;;14.90;99.90;;;;;;4998054;28;20203;-71
2023/10/19 05:44:12;;;;;;;4.45;3.40;;;14.90;99.90;;;;;;4996895;28;20202;-72
2023/10/19 05:46:40;;;;;;;4.57;3.30;;;14.90;99.90;;;;;;4990697;28;20194;-71
2023/10/19 05:49:06;;;;;;;3.72;3.35;;;14.90;99.90;;;;;;5016473;28;20270;-71
2023/10/19 05:51:34;;;;;;;4.28;3.60;;;14.90;99.90;;;;;;4983343;28;20203;-71
2023/10/19 05:54:03;;;;;;;5.80;3.63;;;15.00;99.90;;;;;;4994239;28;20246;-69
2023/10/19 05:56:34;;;;;;;4.43;3.65;;;15.00;99.90;;;;;;4999832;28;20167;-70
2023/10/19 05:59:02;;;;;;;4.15;3.72;;;15.00;99.90;;;;;;5000018;28;20198;-71
2023/10/19 06:01:28;;;;;;;4.93;3.38;;;15.00;99.90;;;;;;5000008;28;20178;-71
2023/10/19 06:03:53;;;;;;;6.40;3.70;;;15.00;99.90;;;;;;4999692;28;20224;-70
2023/10/19 06:06:20;;;;;;;5.22;3.90;;;15.00;99.90;;;;;;4999333;28;20167;-70
2023/10/19 06:08:46;;;;;;;4.85;3.80;;;15.00;99.90;;;;;;4990444;28;20290;-72
2023/10/19 06:11:11;;;;;;;5.90;3.85;;;15.00;99.90;;;;;;4998784;28;20262;-70
2023/10/19 06:13:39;;;;;;;4.00;3.60;;;15.10;99.90;;;;;;4995754;28;20187;-70
2023/10/19 06:16:05;;;;;;;5.32;3.88;;;15.10;99.90;;;;;;4996792;28;20171;-70
2023/10/19 06:18:31;;;;;;;5.13;4.10;;;15.10;99.90;;;;;;4999382;28;20175;-70
2023/10/19 06:20:57;;;;;;;6.60;4.18;;;15.10;99.90;;;;;;4988179;28;20216;-71
2023/10/19 06:23:23;;;;;;;4.45;3.78;;;15.10;99.90;;;;;;5002517;28;20248;-71
2023/10/19 06:25:51;;;;;;;4.32;3.92;;;15.20;99.90;;;;;;4999180;28;20179;-71
2023/10/19 06:28:17;;;;;;;5.63;4.22;;;15.20;99.90;;;;;;4998392;28;20198;-71
2023/10/19 06:30:45;;;;;;;5.20;3.95;;;15.20;99.90;;;;;;4998255;28;20170;-69
2023/10/19 06:33:12;;;;;;;4.20;3.70;;;15.20;99.90;;;;;;4995984;28;20202;-69
2023/10/19 06:35:38;;;;;;;3.95;3.50;;;15.20;99.90;;;;;;4999000;28;20185;-70
2023/10/19 06:38:08;;;;;;;4.35;3.55;;;15.20;99.90;;;;;;4997599;28;20204;-69
2023/10/19 06:40:36;;;;;;;4.53;3.78;;;15.30;99.90;;;;;;4985169;28;20197;-70
2023/10/19 06:43:05;;;;;;;4.90;3.65;;;15.30;99.90;;;;;;5007861;28;20202;-70
2023/10/19 06:45:34;;;;;;;4.30;3.45;;;15.30;99.90;;;;;;5007270;28;20209;-72
2023/10/19 06:48:03;;;;;;;4.50;3.50;;;15.30;99.90;;;;;;4989078;28;20175;-70
2023/10/19 06:50:30;;;;;;;4.43;3.25;;;15.40;99.90;;;;;;4997370;28;20182;-70
2023/10/19 06:52:57;;;;;;;3.47;3.13;;;15.30;99.90;;;;;;4997947;28;20225;-70
2023/10/19 06:55:28;;;;;;;4.53;2.95;;;15.40;99.90;;;;;;4996990;28;20171;-71
2023/10/19 06:57:56;;;;;;;3.50;3.05;;;15.40;99.90;;;;;;4979691;28;20211;-71
2023/10/19 07:00:26;;;;;;;4.57;3.30;;;15.40;99.90;;;;;;4979826;28;20179;-71
2023/10/19 07:02:55;;;;;;;2.92;2.63;;;15.50;99.90;;;;;;4985503;28;20329;-70
2023/10/19 07:05:23;;;;;;;3.75;2.97;;;15.50;99.90;;;;;;5014639;28;20217;-71
2023/10/19 07:07:51;;;;;;;3.65;2.85;;;15.50;99.90;;;;;;4998930;28;20173;-70
2023/10/19 07:10:18;;;;;;;4.22;3.17;;;15.60;99.90;;;;;;4998015;28;20206;-70
2023/10/19 07:12:46;;;;;;;3.65;2.80;;;15.60;99.90;;;;;;4998570;28;20190;-71
2023/10/19 07:15:15;;;;;;;3.67;2.88;;;15.60;99.90;;;;;;4998871;28;20185;-71
2023/10/19 07:17:42;;;;;;;3.65;2.88;;;15.60;99.90;;;;;;4998499;28;20202;-70
2023/10/19 07:20:17;;;;;;;4.63;3.08;;;15.70;99.90;;;;;;4998716;28;20189;-70
2023/10/19 07:22:45;;;;;;;5.38;3.00;;;15.70;99.90;;;;;;5012747;28;20205;-70
2023/10/19 07:25:13;;;;;;;3.97;2.90;;;15.70;99.90;;;;;;5003602;28;20265;-70
2023/10/19 07:27:42;;;;;;;3.75;2.80;;;15.80;99.90;;;;;;4978977;28;20167;-71
2023/10/19 07:30:12;;;;;;;4.10;2.85;;;15.80;99.90;;;;;;4979390;28;20178;-70
2023/10/19 07:32:40;;;;;;;4.85;2.75;;;15.80;99.90;;;;;;4992464;28;20244;-70
2023/10/19 07:35:08;;;;;;;3.50;2.75;;;15.80;99.90;;;;;;5006065;28;20224;-70
2023/10/19 07:37:35;;;;;;;3.42;2.60;;;15.90;99.90;;;;;;4998512;28;20202;-71
2023/10/19 07:40:01;;;;;;;5.20;2.88;;;15.90;99.90;;;;;;4985164;28;20195;-69
2023/10/19 07:42:26;;;;;;;4.28;2.63;;;15.90;99.90;;;;;;5009454;28;20277;-68
2023/10/19 07:44:56;;;;;;;5.00;2.95;;;15.90;99.90;;;;;;4989757;28;20288;-69
2023/10/19 07:47:22;;;;;;;4.35;2.70;;;16.00;99.90;;;;;;4982504;28;20206;-69
2023/10/19 07:49:51;;;;;;;3.63;2.22;;;16.00;99.90;;;;;;4966409;28;20207;-69
2023/10/19 07:52:19;;;;;;;4.40;2.35;;;16.00;99.90;;;;;;4991506;28;20178;-69
2023/10/19 07:54:45;;;;;;;2.95;2.35;;;16.10;99.90;;;;;;4998186;28;20236;-69
2023/10/19 07:57:12;;;;;;;3.58;2.58;;;16.10;99.90;;;;;;4993698;28;20182;-69
2023/10/19 07:59:40;;;;;;;3.97;2.80;;;16.20;99.90;;;;;;4981975;28;20211;-69
2023/10/19 08:02:08;;;;;;;3.55;2.60;;;16.30;99.90;;;;;;4998774;28;20262;-69
2023/10/19 08:04:34;;;;;;;3.83;2.63;;;16.30;99.90;;;;;;4998737;28;20260;-70
2023/10/19 08:06:59;;;;;;;4.97;3.03;;;16.30;99.90;;;;;;5000500;28;20171;-69
2023/10/19 08:09:31;;;;;;;3.08;2.40;;;16.40;99.90;;;;;;5001357;28;20190;-70
2023/10/19 08:12:00;;;;;;;3.38;2.70;;;16.40;99.90;;;;;;5001001;28;20294;-68
2023/10/19 08:14:30;;;;;;;3.72;2.42;;;16.50;99.90;;;;;;4999932;28;20186;-68
2023/10/19 08:16:56;;;;;;;5.60;2.85;;;16.50;99.90;;;;;;5001104;28;20206;-69
2023/10/19 08:19:24;;;;;;;3.83;2.78;;;16.60;99.90;;;;;;4997946;28;20179;-69
2023/10/19 08:21:50;;;;;;;4.63;3.30;;;16.60;99.90;;;;;;5001160;28;20230;-69
2023/10/19 08:24:17;;;;;;;4.78;2.90;;;16.70;99.90;;;;;;5002191;28;20253;-71
2023/10/19 08:26:45;;;;;;;5.15;3.05;;;16.80;99.90;;;;;;5001732;28;20185;-69
2023/10/19 08:29:15;;;;;;;4.00;2.95;;;16.80;99.90;;;;;;5000247;28;20186;-69
2023/10/19 08:31:42;;;;;;;4.28;3.00;;;16.90;99.90;;;;;;5001974;28;20171;-69
2023/10/19 08:34:14;;;;;;;3.90;2.95;;;17.00;99.90;;;;;;5001552;28;20181;-69
2023/10/19 08:36:44;;;;;;;3.83;2.60;;;17.00;99.90;;;;;;4998365;28;20203;-69
2023/10/19 08:39:12;;;;;;;3.85;2.85;;;17.10;99.90;;;;;;5001120;28;20217;-69
2023/10/19 08:41:43;;;;;;;3.72;2.75;;;17.10;99.90;;;;;;4996186;28;20183;-69
2023/10/19 08:44:15;;;;;;;4.50;2.80;;;17.10;99.90;;;;;;4999485;28;20206;-69
2023/10/19 08:46:48;;;;;;;3.00;2.70;;;17.20;99.90;;;;;;4993994;28;20189;-69
2023/10/19 08:49:19;;;;;;;4.72;2.80;;;17.20;99.90;;;;;;5000961;28;20568;-70
2023/10/19 08:51:48;;;;;;;5.47;3.08;;;17.30;99.90;;;;;;5001458;28;20186;-70
2023/10/19 08:54:17;;;;;;;3.80;2.78;;;17.30;99.90;;;;;;5001159;28;20187;-69
2023/10/19 08:56:44;;;;;;;5.05;2.60;;;17.30;99.90;;;;;;4991864;28;20171;-69
2023/10/19 08:59:15;;;;;;;4.82;2.60;;;17.40;99.90;;;;;;4998107;28;20194;-69
2023/10/19 09:01:43;;;;;;;4.13;2.30;;;17.40;99.90;;;;;;5001145;28;20268;-69
2023/10/19 09:04:13;;;;;;;3.72;2.45;;;17.50;99.90;;;;;;4988141;28;20261;-69
2023/10/19 09:06:42;;;;;;;4.07;2.60;;;17.80;99.90;;;;;;4986422;28;20420;-69
2023/10/19 09:09:19;;;;;;;3.13;2.38;;;18.40;99.90;;;;;;4997382;28;20175;-69
2023/10/19 09:11:46;;;;;;;6.65;2.40;;;19.00;99.90;;;;;;4996567;28;20225;-69
2023/10/19 09:14:17;;;;;;;4.18;1.90;;;19.50;99.90;;;;;;5000854;28;20217;-71
2023/10/19 09:16:56;;;;;;;3.45;1.92;;;19.80;99.90;;;;;;5000912;28;20167;-69
2023/10/19 09:19:48;;;;;;;2.75;1.80;;;19.80;99.90;;;;;;4997883;28;20210;-69
2023/10/19 09:22:18;;;;;;;2.65;1.85;;;19.90;99.90;;;;;;4999980;28;20186;-69
2023/10/19 09:24:45;;;;;;;4.20;2.10;;;20.20;99.90;;;;;;5001648;28;20236;-68
2023/10/19 09:27:17;;;;;;;3.65;1.67;;;20.70;99.90;;;;;;4993632;28;20171;-70
2023/10/19 09:29:45;;;;;;;2.83;1.90;;;21.10;99.90;;;;;;4999427;28;20174;-69
2023/10/19 09:32:13;;;;;;;2.60;1.63;;;21.60;99.90;;;;;;5000152;28;20203;-70
2023/10/19 09:34:43;;;;;;;3.25;1.60;;;22.20;99.90;;;;;;5000441;28;20174;-70
2023/10/19 09:37:09;;;;;;;3.95;2.13;;;22.70;99.90;;;;;;4993717;28;20207;-69
2023/10/19 09:39:35;;;;;;;3.72;1.52;;;23.20;99.90;;;;;;4996389;28;20216;-70
2023/10/19 09:42:05;;;;;;;3.83;1.83;;;23.70;99.90;;;;;;4996202;28;20230;-69
2023/10/19 09:44:38;;;;;;;2.92;1.52;;;24.00;99.90;;;;;;4999267;28;20240;-69
2023/10/19 09:47:10;;;;;;;3.15;1.40;;;24.30;99.90;;;;;;5003529;28;20245;-69
2023/10/19 09:49:36;;;;;;;3.25;1.60;;;24.50;99.90;;;;;;4999893;28;20166;-69
2023/10/19 09:52:05;;;;;;;6.13;1.70;;;24.60;99.90;;;;;;4999968;28;20190;-69
2023/10/19 09:54:47;;;;;;;3.28;1.40;;;24.70;99.90;;;;;;4980455;28;20274;-69
2023/10/19 09:57:18;;;;;;;3.38;1.25;;;24.90;99.90;;;;;;4996452;28;20288;-69
2023/10/19 09:59:47;;;;;;;5.10;1.35;;;25.10;99.90;;;;;;4999354;28;20166;-69
2023/10/19 10:02:14;;;;;;;1.52;0.95;;;25.20;99.90;;;;;;5017087;28;20215;-70
2023/10/19 10:04:47;;;;;;;1.95;1.20;;;25.20;99.90;;;;;;4999691;28;20229;-69
2023/10/19 10:07:13;;;;;;;3.25;1.48;;;25.30;99.90;;;;;;4999692;28;20171;-70
2023/10/19 10:09:47;;;;;;;4.60;1.60;;;25.30;99.90;;;;;;4999670;28;20264;-69
2023/10/19 10:12:23;;;;;;;2.45;1.15;;;25.30;99.90;;;;;;4997327;28;20202;-68
2023/10/19 10:15:07;;;;;;;3.17;1.30;;;25.30;99.90;;;;;;4999286;28;20205;-68
2023/10/19 10:17:39;;;;;;;3.75;1.42;;;25.30;99.90;;;;;;4998571;28;20174;-68
2023/10/19 10:20:13;;;;;;;3.20;1.27;;;25.20;99.90;;;;;;5011581;28;20187;-68
2023/10/19 10:22:41;;;;;;;3.42;1.33;;;25.10;99.90;;;;;;4998490;28;20219;-68
2023/10/19 10:25:07;;;;;;;3.92;1.88;;;24.90;99.90;;;;;;4999011;28;20171;-68
2023/10/19 10:27:36;;;;;;;4.95;1.60;;;24.70;99.90;;;;;;4998948;28;20182;-68
2023/10/19 10:30:07;;;;;;;3.55;1.23;;;24.40;99.90;;;;;;4998899;28;20182;-67
2023/10/19 10:32:54;;;;;;;3.78;1.40;;;24.00;99.90;;;;;;4998468;28;20171;-68
2023/10/19 10:35:41;;;;;;;3.90;1.30;;;23.60;99.90;;;;;;5010284;28;20202;-67
2023/10/19 10:38:14;;;;;;;3.75;1.30;;;23.10;99.90;;;;;;4999161;28;20186;-68
2023/10/19 10:40:49;;;;;;;4.45;1.20;;;22.70;99.90;;;;;;4999021;28;20221;-66
2023/10/19 10:43:16;;;;;;;3.55;1.65;;;22.30;99.90;;;;;;4998592;28;20205;-67
2023/10/19 10:45:42;;;;;;;4.00;1.50;;;22.00;99.90;;;;;;5001538;28;20183;-66
2023/10/19 10:48:19;;;;;;;5.18;1.05;;;21.70;99.90;;;;;;4997748;28;20185;-67
2023/10/19 10:50:46;;;;;;;3.17;1.17;;;21.50;99.90;;;;;;4979633;28;20167;-67
2023/10/19 10:53:15;;;;;;;4.22;1.30;;;21.30;99.90;;;;;;4993535;28;20198;-68
2023/10/19 10:55:43;;;;;;;2.97;1.00;;;21.10;99.90;;;;;;4989724;28;20189;-67
2023/10/19 10:58:17;;;;;;;3.33;1.58;;;21.00;99.90;;;;;;4998514;28;20198;-67
2023/10/19 11:00:44;;;;;;;2.72;1.33;;;20.90;99.90;;;;;;4990532;28;20241;-68
2023/10/19 11:03:10;;;;;;;3.40;1.40;;;20.80;99.90;;;;;;4996463;28;20214;-68
2023/10/19 11:05:38;;;;;;;4.63;1.55;;;20.70;99.90;;;;;;4992553;28;20233;-67
2023/10/19 11:08:21;;;;;;;4.43;1.67;;;20.60;99.90;;;;;;4998349;28;20233;-68
2023/10/19 11:10:48;;;;;;;2.90;1.50;;;20.60;99.90;;;;;;4996407;28;20225;-68
2023/10/19 11:13:16;;;;;;;3.25;1.40;;;20.50;99.90;;;;;;4997951;28;20221;-68
2023/10/19 11:15:52;;;;;;;4.60;1.58;;;20.50;99.90;;;;;;4985050;28;20242;-69
2023/10/19 11:18:43;;;;;;;3.92;1.60;;;20.50;99.90;;;;;;4979042;28;20243;-68
2023/10/19 11:21:18;;;;;;;3.50;1.83;;;20.40;99.90;;;;;;4983337;28;20273;-68
2023/10/19 11:23:53;;;;;;;3.50;1.60;;;20.40;99.90;;;;;;4998130;28;20205;-68
2023/10/19 11:26:25;;;;;;;4.72;1.75;;;20.40;99.90;;;;;;5012179;28;20463;-68
2023/10/19 11:29:04;;;;;;;3.25;1.67;;;20.30;99.90;;;;;;4999045;28;20304;-68
2023/10/19 11:31:37;;;;;;;4.47;1.50;;;20.30;99.90;;;;;;4998556;28;20185;-68
2023/10/19 11:34:03;;;;;;;3.70;1.75;;;20.20;99.90;;;;;;4983159;28;20379;-68
2023/10/19 11:36:29;;;;;;;4.20;1.88;;;20.20;99.90;;;;;;4999218;28;20200;-67
2023/10/19 11:38:55;;;;;;;4.47;1.73;;;20.10;99.90;;;;;;5000974;28;20187;-67
2023/10/19 11:41:21;;;;;;;3.00;1.50;;;20.10;99.90;;;;;;5002559;28;20206;-68
2023/10/19 11:43:48;;;;;;;6.43;1.85;;;20.10;99.90;;;;;;5002529;28;20206;-67
2023/10/19 11:46:15;;;;;;;3.33;1.77;;;20.00;99.90;;;;;;4988466;28;20171;-69
2023/10/19 11:48:42;;;;;;;5.10;1.58;;;20.00;99.90;;;;;;4991489;28;20309;-68
2023/10/19 11:51:10;;;;;;;3.80;1.50;;;19.90;99.90;;;;;;5002592;28;20178;-69
2023/10/19 11:53:37;;;;;;;3.25;1.52;;;19.90;99.90;;;;;;5002226;28;20206;-68
2023/10/19 11:56:05;;;;;;;4.90;1.70;;;19.90;99.90;;;;;;4993979;28;20365;-67
2023/10/19 11:58:34;;;;;;;6.28;1.58;;;19.80;99.90;;;;;;5002170;28;20218;-66
2023/10/19 12:01:05;;;;;;;3.60;1.98;;;19.80;99.90;;;;;;4989977;28;20210;-68
2023/10/19 12:03:36;;;;;;;3.70;1.73;;;19.70;99.90;;;;;;5002237;28;20205;-69
2023/10/19 12:06:06;;;;;;;2.72;1.60;;;19.70;99.90;;;;;;4998559;28;20234;-69
2023/10/19 12:08:32;;;;;;;4.13;1.50;;;19.70;99.90;;;;;;4991707;28;20174;-69
2023/10/19 12:10:58;;;;;;;3.65;1.65;;;19.60;99.90;;;;;;5000843;28;20240;-73
2023/10/19 12:13:25;;;;;;;4.75;1.60;;;19.60;99.90;;;;;;5002004;28;20175;-69
2023/10/19 12:15:54;;;;;;;4.35;1.50;;;19.60;99.90;;;;;;5031308;28;20186;-70
2023/10/19 12:18:21;;;;;;;2.88;1.40;;;19.60;99.90;;;;;;5004666;28;20213;-69
2023/10/19 12:20:49;;;;;;;5.25;2.40;;;19.60;99.90;;;;;;4996437;28;20170;-69
2023/10/19 12:23:14;;;;;;;4.22;1.77;;;19.60;99.90;;;;;;4993397;28;20196;-69
2023/10/19 12:25:42;;;;;;;4.70;1.70;;;19.60;99.90;;;;;;4995211;28;20182;-71
2023/10/19 12:28:12;;;;;;;3.10;1.63;;;19.60;99.90;;;;;;5001394;28;20195;-71
2023/10/19 12:30:41;;;;;;;3.38;1.60;;;19.50;99.90;;;;;;5001175;28;20198;-71
2023/10/19 12:33:13;;;;;;;3.58;1.65;;;19.50;99.90;;;;;;5001741;28;20182;-69
2023/10/19 12:35:45;;;;;;;5.63;1.70;;;19.50;99.90;;;;;;4994156;28;20174;-70
2023/10/19 12:38:16;;;;;;;6.30;2.03;;;19.50;99.90;;;;;;5000676;28;20218;-67
2023/10/19 12:40:50;;;;;;;4.03;1.95;;;19.50;99.90;;;;;;4996094;28;20280;-69
2023/10/19 12:43:22;;;;;;;4.38;2.22;;;19.40;99.90;;;;;;5001412;28;20214;-70
2023/10/19 12:45:53;;;;;;;4.22;1.75;;;19.40;99.90;;;;;;4999201;28;20258;-66
2023/10/19 12:48:20;;;;;;;4.25;1.70;;;19.30;99.90;;;;;;4997047;28;20167;-66
2023/10/19 12:50:47;;;;;;;3.83;1.67;;;19.30;99.90;;;;;;5000945;28;20182;-66
2023/10/19 12:53:13;;;;;;;4.40;1.58;;;19.20;99.90;;;;;;5000884;28;20190;-67
2023/10/19 12:55:44;;;;;;;2.97;1.50;;;19.10;99.90;;;;;;5000725;28;20213;-68
2023/10/19 12:58:11;;;;;;;3.15;1.60;;;19.10;99.90;;;;;;5000867;28;20178;-67
2023/10/19 13:00:40;;;;;;;5.35;1.75;;;19.10;99.90;;;;;;4993652;28;20179;-67
2023/10/19 13:03:07;;;;;;;4.35;1.60;;;19.10;99.90;;;;;;4997521;28;20203;-67
2023/10/19 13:05:34;;;;;;;3.25;1.52;;;19.10;99.90;;;;;;4993955;28;20180;-67
2023/10/19 13:08:05;;;;;;;4.20;1.92;;;19.10;99.90;;;;;;4994047;28;20273;-67
2023/10/19 13:10:32;;;;;;;3.50;1.77;;;19.10;99.90;;;;;;5000606;28;20213;-67
2023/10/19 13:13:04;;;;;;;3.35;1.58;;;19.10;99.90;;;;;;5000993;28;20217;-67
2023/10/19 13:15:36;;;;;;;5.22;1.80;;;19.10;99.90;;;;;;5000438;28;20198;-67